Time;durP1;ratioP1;P1;durP2;ratioP2;P2;SDS_P1;SDS_P2;PMS_P1;PMS_P2;Temp;Humidity;BMP_temperature;BMP_pressure;BME280_temperature;BME280_humidity;BME280_pressure;Samples;Min_cycle;Max_cycle;Signal;HPM_P1;HPM_P2
2021/06/05 00:00:31;;;;;;;20.37;18.70;;;;;;;;;;4988682;28;20166;-66
2021/06/05 00:02:57;;;;;;;20.07;18.43;;;;;;;;;;4991130;28;20589;-64
2021/06/05 00:05:23;;;;;;;19.17;17.87;;;;;;;;;;4991195;28;20600;-64
2021/06/05 00:07:49;;;;;;;16.53;15.33;;;;;;;;;;4987754;28;20199;-64
2021/06/05 00:10:17;;;;;;;17.27;16.07;;;;;;;;;;4986766;28;20943;-65
2021/06/05 00:12:42;;;;;;;18.07;16.40;;;;;;;;;;4989481;28;20601;-65
2021/06/05 00:15:10;;;;;;;16.80;15.60;;;;;;;;;;4989886;28;20593;-65
2021/06/05 00:17:35;;;;;;;17.27;16.17;;;;;;;;;;4989200;28;20178;-65
2021/06/05 00:20:00;;;;;;;16.95;15.85;;;;;;;;;;4990672;28;20604;-65
2021/06/05 00:22:25;;;;;;;18.30;16.83;;;;;;;;;;5002396;28;20268;-65
2021/06/05 00:24:50;;;;;;;17.63;16.30;;;;;;;;;;4988749;28;20174;-65
2021/06/05 00:27:15;;;;;;;19.42;17.83;;;;;;;;;;4991541;28;20261;-65
2021/06/05 00:29:41;;;;;;;20.27;18.50;;;;;;;;;;4998433;28;20244;-65
2021/06/05 00:32:06;;;;;;;20.17;18.73;;;;;;;;;;4990141;28;20829;-65
2021/06/05 00:34:31;;;;;;;19.47;17.90;;;;;;;;;;4988515;28;20181;-67
2021/06/05 00:36:56;;;;;;;20.97;19.17;;;;;;;;;;4990461;28;20216;-66
2021/06/05 00:39:22;;;;;;;21.57;19.90;;;;;;;;;;4989824;28;20178;-66
2021/06/05 00:41:47;;;;;;;22.30;20.70;;;;;;;;;;4988786;28;20166;-67
2021/06/05 00:44:12;;;;;;;20.70;19.20;;;;;;;;;;4989272;28;20173;-66
2021/06/05 00:46:38;;;;;;;19.90;18.47;;;;;;;;;;4989089;28;20853;-66
2021/06/05 00:49:05;;;;;;;20.10;18.60;;;;;;;;;;4989988;28;20795;-66
2021/06/05 00:51:31;;;;;;;20.13;18.63;;;;;;;;;;4988399;28;20647;-67
2021/06/05 00:53:58;;;;;;;22.03;20.43;;;;;;;;;;4991909;28;20608;-67
2021/06/05 00:56:23;;;;;;;21.43;19.87;;;;;;;;;;4987304;28;20762;-67
2021/06/05 00:58:49;;;;;;;22.85;21.15;;;;;;;;;;4989799;28;20658;-67
2021/06/05 01:01:16;;;;;;;21.13;19.30;;;;;;;;;;4988900;28;20181;-67
2021/06/05 01:03:41;;;;;;;19.33;18.03;;;;;;;;;;4989412;28;20621;-66
2021/06/05 01:06:16;;;;;;;19.73;18.20;;;;;;;;;;4989461;28;21197;-66
2021/06/05 01:08:50;;;;;;;18.53;17.13;;;;;;;;;;4989472;28;20550;-67
2021/06/05 01:11:45;;;;;;;18.47;17.07;;;;;;;;;;4987467;28;20608;-66
2021/06/05 01:14:29;;;;;;;19.57;18.13;;;;;;;;;;4980195;28;20636;-66
2021/06/05 01:16:57;;;;;;;19.43;18.10;;;;;;;;;;4989952;28;20659;-66
2021/06/05 01:19:28;;;;;;;18.93;17.63;;;;;;;;;;4987160;28;20648;-65
2021/06/05 01:22:11;;;;;;;20.17;18.53;;;;;;;;;;4989214;28;20630;-66
2021/06/05 01:24:48;;;;;;;21.03;19.43;;;;;;;;;;4982911;28;20605;-65
2021/06/05 01:27:17;;;;;;;21.23;19.43;;;;;;;;;;4974264;28;20592;-66
2021/06/05 01:29:44;;;;;;;21.57;20.07;;;;;;;;;;4988178;28;21049;-66
2021/06/05 01:32:11;;;;;;;20.80;19.30;;;;;;;;;;4998777;28;20691;-66
2021/06/05 01:34:41;;;;;;;20.53;19.03;;;;;;;;;;4988317;28;20587;-66
2021/06/05 01:37:08;;;;;;;21.10;19.57;;;;;;;;;;4984662;28;20764;-66
2021/06/05 01:39:35;;;;;;;20.83;19.33;;;;;;;;;;4987863;28;20610;-67
2021/06/05 01:42:03;;;;;;;18.17;16.93;;;;;;;;;;4988660;28;20590;-68
2021/06/05 01:44:31;;;;;;;21.40;19.80;;;;;;;;;;4986811;28;20611;-67
2021/06/05 01:46:56;;;;;;;20.10;18.60;;;;;;;;;;4994730;28;20612;-67
2021/06/05 01:49:21;;;;;;;19.83;18.30;;;;;;;;;;4993541;28;20597;-65
2021/06/05 01:51:49;;;;;;;20.63;19.13;;;;;;;;;;4990755;28;20196;-66
2021/06/05 01:54:20;;;;;;;20.97;19.47;;;;;;;;;;4979232;28;20251;-67
2021/06/05 01:56:48;;;;;;;22.07;20.37;;;;;;;;;;4988785;28;20638;-68
2021/06/05 01:59:15;;;;;;;20.17;18.77;;;;;;;;;;4988746;28;20598;-68
2021/06/05 02:01:40;;;;;;;19.20;17.80;;;;;;;;;;4988094;28;20605;-68
2021/06/05 02:04:07;;;;;;;23.10;21.40;;;;;;;;;;4987093;28;20596;-68
2021/06/05 02:06:32;;;;;;;20.93;19.43;;;;;;;;;;4988788;28;20185;-68
2021/06/05 02:08:57;;;;;;;22.03;19.97;;;;;;;;;;4986294;28;20631;-67
2021/06/05 02:11:24;;;;;;;20.03;18.63;;;;;;;;;;4989171;28;20806;-67
2021/06/05 02:13:53;;;;;;;20.60;19.00;;;;;;;;;;4985757;28;20190;-66
2021/06/05 02:16:23;;;;;;;21.40;19.90;;;;;;;;;;4993849;28;20719;-67
2021/06/05 02:18:50;;;;;;;20.20;18.80;;;;;;;;;;4991714;28;20596;-67
2021/06/05 02:21:18;;;;;;;19.83;18.23;;;;;;;;;;4988912;28;20668;-66
2021/06/05 02:23:43;;;;;;;21.10;19.67;;;;;;;;;;4989460;28;21162;-66
2021/06/05 02:26:09;;;;;;;21.40;19.90;;;;;;;;;;4987674;28;21246;-65
2021/06/05 02:28:35;;;;;;;20.73;19.23;;;;;;;;;;4987389;28;20209;-65
2021/06/05 02:31:00;;;;;;;20.00;18.20;;;;;;;;;;4988260;28;20655;-65
2021/06/05 02:33:25;;;;;;;21.37;19.67;;;;;;;;;;4985965;28;20185;-65
2021/06/05 02:35:51;;;;;;;19.57;18.07;;;;;;;;;;4987503;28;20212;-65
2021/06/05 02:38:18;;;;;;;21.30;19.60;;;;;;;;;;4986997;28;20185;-65
2021/06/05 02:40:43;;;;;;;20.47;18.97;;;;;;;;;;4994378;28;20238;-65
2021/06/05 02:43:14;;;;;;;20.47;18.90;;;;;;;;;;4985585;28;21353;-65
2021/06/05 02:45:53;;;;;;;19.67;18.27;;;;;;;;;;4988206;28;20192;-65
2021/06/05 02:48:19;;;;;;;20.97;19.13;;;;;;;;;;4994054;28;20700;-65
2021/06/05 02:50:49;;;;;;;18.97;17.60;;;;;;;;;;4984012;28;20750;-65
2021/06/05 02:53:15;;;;;;;20.00;18.50;;;;;;;;;;4987462;28;20299;-65
2021/06/05 02:55:41;;;;;;;20.63;19.03;;;;;;;;;;4986938;28;20743;-64
2021/06/05 02:58:06;;;;;;;19.97;18.47;;;;;;;;;;4987235;28;20663;-65
2021/06/05 03:00:34;;;;;;;19.83;18.50;;;;;;;;;;4988176;28;20616;-66
2021/06/05 03:03:00;;;;;;;20.33;18.83;;;;;;;;;;4985911;28;20189;-63
2021/06/05 03:05:26;;;;;;;18.90;17.27;;;;;;;;;;4984901;28;20605;-64
2021/06/05 03:07:51;;;;;;;19.73;18.17;;;;;;;;;;4987050;28;20332;-64
2021/06/05 03:10:16;;;;;;;21.00;19.40;;;;;;;;;;4987035;28;20247;-64
2021/06/05 03:12:42;;;;;;;19.20;17.83;;;;;;;;;;4988373;28;20273;-65
2021/06/05 03:15:07;;;;;;;20.83;19.10;;;;;;;;;;4987408;28;20324;-65
2021/06/05 03:17:33;;;;;;;19.30;18.00;;;;;;;;;;4988724;28;20176;-65
2021/06/05 03:19:58;;;;;;;19.17;17.73;;;;;;;;;;4987206;28;20184;-65
2021/06/05 03:22:23;;;;;;;19.47;18.03;;;;;;;;;;4993342;28;20169;-65
2021/06/05 03:24:48;;;;;;;20.43;18.70;;;;;;;;;;4987080;28;20232;-65
2021/06/05 03:27:13;;;;;;;19.30;17.90;;;;;;;;;;4980698;28;20181;-66
2021/06/05 03:29:38;;;;;;;19.27;17.88;;;;;;;;;;4987253;28;20209;-66
2021/06/05 03:32:04;;;;;;;19.90;18.50;;;;;;;;;;4991253;28;20316;-67
2021/06/05 03:34:30;;;;;;;20.20;18.80;;;;;;;;;;4990955;28;20189;-68
2021/06/05 03:36:55;;;;;;;21.00;19.60;;;;;;;;;;4990781;28;20738;-67
2021/06/05 03:39:20;;;;;;;19.25;17.85;;;;;;;;;;4989839;28;20591;-67
2021/06/05 03:41:46;;;;;;;20.65;19.17;;;;;;;;;;4992339;28;20568;-68
2021/06/05 03:44:11;;;;;;;21.23;19.43;;;;;;;;;;4990659;28;20177;-68
2021/06/05 03:46:37;;;;;;;19.10;17.50;;;;;;;;;;4994431;28;20205;-67
2021/06/05 03:49:02;;;;;;;20.30;18.67;;;;;;;;;;4990773;28;20679;-67
2021/06/05 03:51:27;;;;;;;19.70;18.10;;;;;;;;;;4986583;28;20170;-65
2021/06/05 03:53:52;;;;;;;20.33;18.83;;;;;;;;;;4992262;28;20558;-67
2021/06/05 03:56:18;;;;;;;18.13;16.83;;;;;;;;;;4989457;28;20715;-64
2021/06/05 03:58:44;;;;;;;17.73;16.40;;;;;;;;;;4990462;28;20178;-66
2021/06/05 04:01:15;;;;;;;18.67;17.30;;;;;;;;;;4990559;28;20527;-66
2021/06/05 04:03:40;;;;;;;19.10;17.53;;;;;;;;;;4988708;28;20659;-66
2021/06/05 04:06:05;;;;;;;18.30;17.00;;;;;;;;;;4991214;28;20575;-66
2021/06/05 04:08:31;;;;;;;18.33;16.93;;;;;;;;;;5001387;28;20186;-68
2021/06/05 04:10:56;;;;;;;16.85;15.75;;;;;;;;;;4997314;28;20220;-67
2021/06/05 04:13:21;;;;;;;18.35;17.08;;;;;;;;;;4995624;28;20190;-67
2021/06/05 04:15:46;;;;;;;16.17;14.98;;;;;;;;;;4988484;28;20682;-67
2021/06/05 04:18:12;;;;;;;17.17;15.98;;;;;;;;;;4989998;28;20168;-68
2021/06/05 04:20:38;;;;;;;17.70;16.20;;;;;;;;;;4988181;28;20174;-66
2021/06/05 04:23:04;;;;;;;17.83;16.53;;;;;;;;;;4989139;28;20582;-67
2021/06/05 04:25:29;;;;;;;16.80;15.50;;;;;;;;;;4990152;28;20240;-67
2021/06/05 04:27:54;;;;;;;15.43;14.43;;;;;;;;;;4989204;28;20954;-67
2021/06/05 04:30:23;;;;;;;16.40;15.30;;;;;;;;;;4992095;28;20186;-67
2021/06/05 04:32:48;;;;;;;16.80;15.70;;;;;;;;;;4998178;28;20660;-68
2021/06/05 04:35:14;;;;;;;14.85;13.85;;;;;;;;;;4987910;28;21235;-66
2021/06/05 04:37:39;;;;;;;16.03;14.93;;;;;;;;;;4989942;28;20655;-67
2021/06/05 04:40:04;;;;;;;15.43;14.30;;;;;;;;;;4987996;28;20189;-67
2021/06/05 04:42:30;;;;;;;17.97;16.67;;;;;;;;;;4990354;28;20169;-66
2021/06/05 04:44:55;;;;;;;15.80;14.53;;;;;;;;;;4987673;28;20192;-68
2021/06/05 04:47:20;;;;;;;15.85;14.65;;;;;;;;;;4987650;28;20283;-68
2021/06/05 04:49:45;;;;;;;16.23;15.17;;;;;;;;;;4987627;28;20551;-68
2021/06/05 04:52:11;;;;;;;15.20;14.20;;;;;;;;;;4994139;28;20181;-71
2021/06/05 04:54:36;;;;;;;16.00;14.80;;;;;;;;;;4989163;28;20182;-72
2021/06/05 04:57:01;;;;;;;16.88;15.68;;;;;;;;;;4989903;28;20213;-70
2021/06/05 04:59:26;;;;;;;15.00;14.00;;;;;;;;;;4988873;28;20238;-70
2021/06/05 05:01:51;;;;;;;15.90;14.80;;;;;;;;;;4987029;28;20829;-71
2021/06/05 05:04:17;;;;;;;15.77;14.67;;;;;;;;;;4987115;28;20169;-69
2021/06/05 05:06:42;;;;;;;15.60;14.57;;;;;;;;;;4990826;28;20208;-69
2021/06/05 05:09:09;;;;;;;15.07;14.00;;;;;;;;;;4999184;28;20183;-68
2021/06/05 05:11:34;;;;;;;15.87;14.57;;;;;;;;;;4990014;28;20177;-67
2021/06/05 05:14:00;;;;;;;15.07;14.07;;;;;;;;;;4989615;28;21142;-66
2021/06/05 05:16:25;;;;;;;14.50;13.50;;;;;;;;;;4986903;28;20221;-67
2021/06/05 05:18:53;;;;;;;13.73;12.60;;;;;;;;;;4986984;28;20237;-67
2021/06/05 05:21:18;;;;;;;13.83;12.70;;;;;;;;;;4988152;28;20176;-66
2021/06/05 05:23:44;;;;;;;13.90;12.77;;;;;;;;;;4987127;28;20621;-70
2021/06/05 05:26:10;;;;;;;14.40;13.43;;;;;;;;;;4985367;28;20243;-68
2021/06/05 05:28:36;;;;;;;13.40;12.60;;;;;;;;;;4982962;28;20866;-68
2021/06/05 05:31:03;;;;;;;13.30;12.50;;;;;;;;;;4988018;28;21105;-68
2021/06/05 05:33:29;;;;;;;13.70;12.80;;;;;;;;;;4991837;28;21184;-68
2021/06/05 05:35:55;;;;;;;13.10;12.10;;;;;;;;;;4996258;28;20634;-69
2021/06/05 05:38:21;;;;;;;11.30;10.60;;;;;;;;;;4988697;28;20170;-69
2021/06/05 05:40:46;;;;;;;12.27;11.47;;;;;;;;;;4986193;28;20596;-63
2021/06/05 05:43:12;;;;;;;12.40;11.50;;;;;;;;;;4985426;28;21253;-63
2021/06/05 05:45:39;;;;;;;11.77;10.97;;;;;;;;;;4991975;28;20633;-63
2021/06/05 05:48:05;;;;;;;12.30;11.50;;;;;;;;;;4988835;28;20208;-65
2021/06/05 05:50:31;;;;;;;12.70;11.70;;;;;;;;;;4987616;28;20727;-65
2021/06/05 05:52:57;;;;;;;12.90;12.10;;;;;;;;;;4986353;28;20590;-65
2021/06/05 05:55:22;;;;;;;13.03;12.13;;;;;;;;;;4985957;28;20583;-65
2021/06/05 05:57:48;;;;;;;11.17;10.47;;;;;;;;;;4987424;28;20236;-63
2021/06/05 06:00:15;;;;;;;12.97;12.10;;;;;;;;;;4985833;28;20180;-64
2021/06/05 06:02:41;;;;;;;12.57;11.57;;;;;;;;;;4988674;28;20583;-65
2021/06/05 06:05:06;;;;;;;11.93;11.23;;;;;;;;;;4987405;28;20580;-66
2021/06/05 06:07:32;;;;;;;11.77;11.07;;;;;;;;;;4987689;28;20662;-67
2021/06/05 06:09:57;;;;;;;12.57;11.63;;;;;;;;;;4987244;28;20191;-67
2021/06/05 06:12:22;;;;;;;11.20;10.40;;;;;;;;;;4986910;28;20204;-67
2021/06/05 06:14:47;;;;;;;12.10;11.40;;;;;;;;;;4985115;28;20180;-67
2021/06/05 06:17:12;;;;;;;12.20;11.30;;;;;;;;;;4986163;28;20257;-66
2021/06/05 06:19:38;;;;;;;12.48;11.48;;;;;;;;;;4986616;28;20551;-66
2021/06/05 06:22:04;;;;;;;11.90;11.20;;;;;;;;;;4986089;28;20173;-66
2021/06/05 06:24:29;;;;;;;11.70;10.90;;;;;;;;;;4988021;28;20540;-66
2021/06/05 06:26:54;;;;;;;12.35;11.55;;;;;;;;;;4987453;28;20213;-66
2021/06/05 06:29:27;;;;;;;12.70;11.90;;;;;;;;;;4987937;28;20204;-66
2021/06/05 06:31:52;;;;;;;13.57;12.47;;;;;;;;;;4985471;28;20750;-66
2021/06/05 06:34:17;;;;;;;12.52;11.63;;;;;;;;;;4985767;28;21164;-66
2021/06/05 06:36:43;;;;;;;12.57;11.55;;;;;;;;;;4987080;28;20683;-66
2021/06/05 06:39:09;;;;;;;11.73;10.90;;;;;;;;;;4987360;28;20180;-66
2021/06/05 06:41:36;;;;;;;12.70;11.80;;;;;;;;;;4987741;28;20173;-66
2021/06/05 06:44:02;;;;;;;13.30;12.40;;;;;;;;;;4987443;28;20672;-65
2021/06/05 06:46:30;;;;;;;15.30;14.10;;;;;;;;;;4989768;28;20578;-66
2021/06/05 06:48:56;;;;;;;12.87;11.97;;;;;;;;;;4985203;28;20593;-65
2021/06/05 06:51:22;;;;;;;12.43;11.43;;;;;;;;;;4980407;28;21014;-65
2021/06/05 06:53:47;;;;;;;11.40;10.60;;;;;;;;;;4982867;28;20622;-67
2021/06/05 06:56:13;;;;;;;14.17;13.23;;;;;;;;;;4984909;28;20205;-68
2021/06/05 06:58:38;;;;;;;13.27;12.33;;;;;;;;;;4989292;28;20179;-67
2021/06/05 07:01:04;;;;;;;12.53;11.63;;;;;;;;;;4988451;28;20644;-67
2021/06/05 07:03:29;;;;;;;14.90;13.63;;;;;;;;;;4986220;28;20180;-66
2021/06/05 07:05:55;;;;;;;12.27;11.47;;;;;;;;;;4985139;28;20581;-67
2021/06/05 07:08:24;;;;;;;11.77;10.97;;;;;;;;;;4987284;28;20538;-67
2021/06/05 07:10:51;;;;;;;13.33;12.33;;;;;;;;;;4987567;28;20183;-67
2021/06/05 07:13:17;;;;;;;14.33;13.23;;;;;;;;;;4985699;28;20609;-66
2021/06/05 07:15:42;;;;;;;12.23;11.33;;;;;;;;;;4986319;28;20987;-66
2021/06/05 07:18:08;;;;;;;12.27;11.37;;;;;;;;;;4987714;28;20181;-66
2021/06/05 07:20:34;;;;;;;11.50;10.70;;;;;;;;;;4982099;28;20189;-65
2021/06/05 07:22:59;;;;;;;11.40;10.70;;;;;;;;;;4985692;28;20674;-65
2021/06/05 07:25:26;;;;;;;11.13;10.37;;;;;;;;;;4987548;28;20671;-65
2021/06/05 07:27:51;;;;;;;12.10;11.30;;;;;;;;;;4986532;28;20667;-65
2021/06/05 07:30:16;;;;;;;11.10;10.40;;;;;;;;;;4988847;28;21193;-65
2021/06/05 07:32:42;;;;;;;11.57;10.77;;;;;;;;;;4988049;28;20738;-65
2021/06/05 07:35:08;;;;;;;11.87;11.07;;;;;;;;;;4987577;28;20173;-65
2021/06/05 07:37:33;;;;;;;11.43;10.63;;;;;;;;;;4986625;28;20197;-65
2021/06/05 07:40:00;;;;;;;13.53;12.63;;;;;;;;;;4985789;28;20807;-65
2021/06/05 07:42:25;;;;;;;11.97;11.07;;;;;;;;;;4988063;28;20386;-65
2021/06/05 07:44:50;;;;;;;10.50;9.80;;;;;;;;;;4984491;28;20631;-65
2021/06/05 07:47:16;;;;;;;11.70;10.87;;;;;;;;;;4986963;28;20186;-65
2021/06/05 07:49:41;;;;;;;12.27;11.47;;;;;;;;;;4984958;28;20656;-65
2021/06/05 07:52:10;;;;;;;11.73;10.93;;;;;;;;;;4986578;28;20391;-64
2021/06/05 07:54:35;;;;;;;10.80;10.10;;;;;;;;;;4987056;28;20181;-65
2021/06/05 07:57:00;;;;;;;10.70;10.00;;;;;;;;;;4986577;28;20619;-65
2021/06/05 07:59:27;;;;;;;11.90;11.00;;;;;;;;;;4985971;28;20245;-66
2021/06/05 08:01:52;;;;;;;12.23;11.27;;;;;;;;;;4986424;28;20182;-66
2021/06/05 08:04:17;;;;;;;11.87;11.10;;;;;;;;;;4985179;28;20615;-66
2021/06/05 08:06:43;;;;;;;10.83;9.97;;;;;;;;;;4986899;28;20178;-66
2021/06/05 08:09:08;;;;;;;11.33;10.43;;;;;;;;;;4986542;28;20537;-66
2021/06/05 08:11:34;;;;;;;11.50;10.80;;;;;;;;;;4987083;28;20662;-66
2021/06/05 08:13:59;;;;;;;10.80;10.10;;;;;;;;;;4990551;28;20265;-66
2021/06/05 08:16:24;;;;;;;11.63;10.77;;;;;;;;;;4981314;28;20768;-66
2021/06/05 08:18:49;;;;;;;11.00;10.30;;;;;;;;;;4988545;28;20224;-66
2021/06/05 08:21:14;;;;;;;11.18;10.38;;;;;;;;;;4988804;28;20240;-66
2021/06/05 08:23:41;;;;;;;10.90;10.20;;;;;;;;;;4991178;28;20249;-66
2021/06/05 08:26:07;;;;;;;11.40;10.00;;;;;;;;;;5006424;28;20189;-66
2021/06/05 08:28:32;;;;;;;13.70;12.70;;;;;;;;;;4994745;28;20632;-66
2021/06/05 08:31:00;;;;;;;13.77;12.77;;;;;;;;;;4994311;28;20647;-66
2021/06/05 08:33:26;;;;;;;13.53;12.50;;;;;;;;;;4996014;28;20177;-66
2021/06/05 08:35:51;;;;;;;12.80;11.80;;;;;;;;;;4990294;28;20619;-66
2021/06/05 08:38:18;;;;;;;10.10;9.50;;;;;;;;;;4990173;28;20260;-66
2021/06/05 08:40:49;;;;;;;11.83;10.80;;;;;;;;;;4989382;28;20177;-66
2021/06/05 08:43:17;;;;;;;11.30;10.47;;;;;;;;;;4991790;28;20583;-68
2021/06/05 08:45:42;;;;;;;11.70;10.73;;;;;;;;;;5007694;28;20595;-67
2021/06/05 08:48:16;;;;;;;11.30;10.60;;;;;;;;;;4995658;28;20592;-66
2021/06/05 08:50:41;;;;;;;11.00;10.20;;;;;;;;;;4988198;28;20174;-66
2021/06/05 08:53:20;;;;;;;12.33;11.57;;;;;;;;;;4990741;28;20601;-66
2021/06/05 08:55:51;;;;;;;11.97;11.17;;;;;;;;;;4988477;28;20285;-66
2021/06/05 08:58:35;;;;;;;12.97;11.97;;;;;;;;;;4990323;28;20577;-66
2021/06/05 09:01:06;;;;;;;12.50;11.53;;;;;;;;;;4990509;28;20669;-66
2021/06/05 09:03:33;;;;;;;11.97;11.17;;;;;;;;;;5005733;28;20571;-66
2021/06/05 09:05:58;;;;;;;12.40;11.30;;;;;;;;;;5008949;28;21026;-66
2021/06/05 09:08:23;;;;;;;13.33;12.53;;;;;;;;;;5009506;28;20580;-66
2021/06/05 09:10:49;;;;;;;14.07;13.03;;;;;;;;;;5009348;28;20177;-66
2021/06/05 09:13:14;;;;;;;13.90;13.00;;;;;;;;;;4998600;28;20186;-66
2021/06/05 09:15:39;;;;;;;12.53;11.63;;;;;;;;;;4987419;28;20212;-66
2021/06/05 09:18:07;;;;;;;13.63;12.73;;;;;;;;;;5001088;28;20185;-68
2021/06/05 09:20:52;;;;;;;14.10;13.20;;;;;;;;;;5009430;28;20574;-68
2021/06/05 09:23:34;;;;;;;14.50;13.50;;;;;;;;;;4990508;28;20617;-68
2021/06/05 09:26:20;;;;;;;13.20;12.30;;;;;;;;;;4987978;28;20620;-68
2021/06/05 09:28:45;;;;;;;13.20;12.00;;;;;;;;;;4988705;28;20622;-67
2021/06/05 09:31:13;;;;;;;13.53;12.53;;;;;;;;;;4988194;28;20631;-67
2021/06/05 09:33:38;;;;;;;13.70;12.60;;;;;;;;;;5005484;28;20256;-67
2021/06/05 09:36:18;;;;;;;14.20;13.17;;;;;;;;;;4989372;28;20657;-68
2021/06/05 09:38:45;;;;;;;15.10;14.03;;;;;;;;;;4989232;28;20187;-67
2021/06/05 09:41:13;;;;;;;15.57;14.50;;;;;;;;;;4989277;28;20917;-67
2021/06/05 09:43:39;;;;;;;15.10;14.20;;;;;;;;;;4988642;28;20582;-67
2021/06/05 09:46:13;;;;;;;14.23;13.23;;;;;;;;;;4988412;28;20690;-67
2021/06/05 09:48:39;;;;;;;17.00;15.70;;;;;;;;;;4987672;28;20582;-67
2021/06/05 09:51:24;;;;;;;14.93;13.73;;;;;;;;;;4987735;28;20653;-68
2021/06/05 09:53:57;;;;;;;14.37;13.27;;;;;;;;;;4989907;28;20754;-68
2021/06/05 09:56:26;;;;;;;14.40;13.40;;;;;;;;;;4988393;28;20626;-68
2021/06/05 09:59:00;;;;;;;14.37;13.27;;;;;;;;;;4990355;28;20675;-68
2021/06/05 10:01:26;;;;;;;14.00;13.10;;;;;;;;;;4984957;28;20602;-68
2021/06/05 10:04:10;;;;;;;14.87;13.87;;;;;;;;;;4986726;28;20578;-68
2021/06/05 10:06:41;;;;;;;14.87;13.60;;;;;;;;;;4989205;28;20584;-68
2021/06/05 10:09:20;;;;;;;13.87;12.97;;;;;;;;;;4988895;28;21156;-68
2021/06/05 10:11:46;;;;;;;13.10;12.20;;;;;;;;;;4985763;28;20581;-68
2021/06/05 10:14:16;;;;;;;13.63;12.73;;;;;;;;;;4989293;28;21412;-68
2021/06/05 10:16:44;;;;;;;13.60;12.70;;;;;;;;;;4986219;28;21349;-68
2021/06/05 10:19:22;;;;;;;14.27;13.27;;;;;;;;;;4993356;28;20583;-67
2021/06/05 10:21:48;;;;;;;12.43;11.63;;;;;;;;;;4994813;28;20703;-67
2021/06/05 10:24:33;;;;;;;13.07;11.97;;;;;;;;;;4994491;28;21098;-68
2021/06/05 10:27:05;;;;;;;13.20;12.27;;;;;;;;;;4987939;28;20265;-68
2021/06/05 10:29:56;;;;;;;14.40;13.33;;;;;;;;;;4993148;28;21007;-65
2021/06/05 10:32:22;;;;;;;12.90;12.00;;;;;;;;;;4999659;28;20661;-66
2021/06/05 10:35:00;;;;;;;13.53;12.63;;;;;;;;;;4988299;28;20600;-66
2021/06/05 10:37:26;;;;;;;14.30;13.40;;;;;;;;;;4984519;28;20614;-66
2021/06/05 10:39:52;;;;;;;14.73;13.80;;;;;;;;;;4992015;28;20581;-68
2021/06/05 10:42:37;;;;;;;13.10;12.20;;;;;;;;;;4986255;28;20671;-67
2021/06/05 10:45:03;;;;;;;16.10;15.00;;;;;;;;;;4987493;28;20182;-67
2021/06/05 10:47:45;;;;;;;12.20;11.20;;;;;;;;;;4985469;28;20676;-62
2021/06/05 10:50:15;;;;;;;66.35;39.08;;;;;;;;;;4986087;28;20733;-57
2021/06/05 10:52:46;;;;;;;201.73;90.67;;;;;;;;;;4985818;28;20257;-58
2021/06/05 10:55:17;;;;;;;17.90;16.60;;;;;;;;;;4986645;28;20575;-58
2021/06/05 10:57:48;;;;;;;18.63;17.13;;;;;;;;;;4997589;28;20661;-58
2021/06/05 11:00:32;;;;;;;19.57;18.17;;;;;;;;;;4985675;28;20978;-58
2021/06/05 11:02:58;;;;;;;18.47;17.10;;;;;;;;;;4991033;28;21181;-59
2021/06/05 11:05:31;;;;;;;18.17;16.70;;;;;;;;;;4986315;28;20597;-59
2021/06/05 11:08:08;;;;;;;19.70;17.97;;;;;;;;;;4988074;28;20182;-59
2021/06/05 11:10:45;;;;;;;17.90;16.60;;;;;;;;;;4986880;28;20979;-59
2021/06/05 11:13:10;;;;;;;19.13;17.43;;;;;;;;;;4988403;28;20704;-58
2021/06/05 11:15:49;;;;;;;18.17;16.50;;;;;;;;;;4985245;28;20696;-58
2021/06/05 11:18:20;;;;;;;19.57;17.67;;;;;;;;;;4990325;28;20245;-58
2021/06/05 11:20:45;;;;;;;18.20;16.70;;;;;;;;;;4985937;28;20998;-58
2021/06/05 11:23:11;;;;;;;18.13;16.93;;;;;;;;;;4986171;28;20695;-58
2021/06/05 11:25:40;;;;;;;18.20;16.60;;;;;;;;;;4986926;28;20604;-59
2021/06/05 11:28:23;;;;;;;16.87;15.77;;;;;;;;;;4982539;28;20624;-58
2021/06/05 11:30:49;;;;;;;17.50;16.40;;;;;;;;;;4985044;28;20676;-59
2021/06/05 11:33:34;;;;;;;20.13;18.73;;;;;;;;;;4982448;28;20605;-58
2021/06/05 11:36:00;;;;;;;18.80;17.40;;;;;;;;;;4995432;28;20751;-58
2021/06/05 11:38:25;;;;;;;18.50;17.30;;;;;;;;;;4990961;28;20566;-58
2021/06/05 11:41:12;;;;;;;18.00;16.80;;;;;;;;;;4990430;28;20607;-59
2021/06/05 11:43:39;;;;;;;18.27;16.97;;;;;;;;;;4984858;28;20255;-59
2021/06/05 11:46:11;;;;;;;18.67;17.13;;;;;;;;;;4987643;28;20587;-59
2021/06/05 11:48:48;;;;;;;19.10;17.50;;;;;;;;;;4985291;28;20593;-59
2021/06/05 11:51:19;;;;;;;18.00;16.70;;;;;;;;;;4976406;28;20954;-57
2021/06/05 11:53:45;;;;;;;16.83;15.60;;;;;;;;;;4973016;28;20607;-57
2021/06/05 11:56:11;;;;;;;16.10;15.10;;;;;;;;;;4978434;28;20626;-57
2021/06/05 11:58:37;;;;;;;16.20;14.93;;;;;;;;;;4971865;28;20576;-57
2021/06/05 12:01:02;;;;;;;16.17;15.07;;;;;;;;;;4987395;28;20183;-58
2021/06/05 12:03:35;;;;;;;12.70;11.90;;;;;;;;;;4990728;28;20704;-57
2021/06/05 12:06:11;;;;;;;12.67;11.87;;;;;;;;;;4991418;28;20178;-59
2021/06/05 12:08:37;;;;;;;12.10;11.30;;;;;;;;;;4982727;28;20698;-59
2021/06/05 12:11:14;;;;;;;13.07;12.03;;;;;;;;;;4987369;28;21124;-59
2021/06/05 12:13:40;;;;;;;13.43;12.53;;;;;;;;;;4974875;28;20182;-59
2021/06/05 12:16:07;;;;;;;12.23;11.43;;;;;;;;;;4980351;28;20667;-58
2021/06/05 12:18:33;;;;;;;12.40;11.50;;;;;;;;;;4980548;28;20588;-58
2021/06/05 12:20:59;;;;;;;13.70;12.27;;;;;;;;;;4977833;28;20940;-58
2021/06/05 12:23:25;;;;;;;12.20;11.43;;;;;;;;;;4975309;28;20183;-59
2021/06/05 12:25:50;;;;;;;13.55;12.60;;;;;;;;;;4972606;28;20602;-58
2021/06/05 12:28:32;;;;;;;13.03;12.20;;;;;;;;;;4984952;28;20250;-58
2021/06/05 12:31:10;;;;;;;13.07;12.07;;;;;;;;;;4993760;28;20681;-58
2021/06/05 12:33:35;;;;;;;12.47;11.57;;;;;;;;;;5005417;28;20574;-58
2021/06/05 12:36:14;;;;;;;12.13;11.27;;;;;;;;;;4991048;28;20663;-58
2021/06/05 12:38:41;;;;;;;11.70;10.90;;;;;;;;;;4988773;28;20176;-58
2021/06/05 12:41:11;;;;;;;10.90;10.10;;;;;;;;;;4989535;28;21251;-59
2021/06/05 12:43:43;;;;;;;10.57;9.87;;;;;;;;;;4998130;28;20577;-58
2021/06/05 12:46:10;;;;;;;10.67;9.97;;;;;;;;;;4998229;28;20704;-59
2021/06/05 12:48:36;;;;;;;11.07;10.30;;;;;;;;;;4986568;28;20666;-59
2021/06/05 12:51:02;;;;;;;10.80;10.10;;;;;;;;;;4989592;28;20647;-58
2021/06/05 12:53:31;;;;;;;11.47;10.57;;;;;;;;;;5004956;28;20551;-58
2021/06/05 12:56:04;;;;;;;13.53;12.33;;;;;;;;;;4986439;28;20649;-58
2021/06/05 12:58:29;;;;;;;13.13;11.80;;;;;;;;;;4991466;28;20674;-60
2021/06/05 13:00:54;;;;;;;13.70;12.60;;;;;;;;;;4997169;28;20699;-60
2021/06/05 13:03:22;;;;;;;15.00;13.93;;;;;;;;;;4998130;28;20184;-59
2021/06/05 13:06:02;;;;;;;13.90;12.90;;;;;;;;;;4979085;28;20408;-60
2021/06/05 13:08:31;;;;;;;15.73;14.53;;;;;;;;;;4987456;28;21340;-60
2021/06/05 13:10:56;;;;;;;15.50;14.20;;;;;;;;;;4987550;28;20599;-60
2021/06/05 13:13:27;;;;;;;16.33;15.13;;;;;;;;;;4987715;28;20610;-59
2021/06/05 13:15:55;;;;;;;16.70;15.40;;;;;;;;;;4992293;28;20203;-59
2021/06/05 13:18:27;;;;;;;15.50;14.40;;;;;;;;;;4988362;28;20610;-59
2021/06/05 13:20:55;;;;;;;15.40;14.20;;;;;;;;;;4981006;28;20672;-59
2021/06/05 13:23:20;;;;;;;14.10;13.00;;;;;;;;;;4986181;28;20624;-59
2021/06/05 13:25:46;;;;;;;15.50;14.30;;;;;;;;;;4989726;28;20595;-59
2021/06/05 13:28:13;;;;;;;17.40;16.20;;;;;;;;;;4989860;28;20667;-61
2021/06/05 13:30:40;;;;;;;17.80;16.50;;;;;;;;;;4984375;28;20196;-61
2021/06/05 13:33:23;;;;;;;16.37;15.10;;;;;;;;;;4995090;28;20606;-61
2021/06/05 13:35:49;;;;;;;15.33;14.10;;;;;;;;;;4986536;28;20606;-61
2021/06/05 13:38:16;;;;;;;14.60;13.50;;;;;;;;;;4988741;28;20629;-61
2021/06/05 13:40:41;;;;;;;14.50;13.53;;;;;;;;;;4987296;28;21230;-60
2021/06/05 13:43:06;;;;;;;13.50;12.48;;;;;;;;;;4991274;28;21204;-60
2021/06/05 13:45:32;;;;;;;12.10;11.30;;;;;;;;;;4988806;28;20634;-60
2021/06/05 13:47:58;;;;;;;12.50;11.70;;;;;;;;;;4987002;28;20216;-58
2021/06/05 13:50:24;;;;;;;10.97;10.33;;;;;;;;;;4988516;28;20532;-57
2021/06/05 13:52:51;;;;;;;10.67;10.00;;;;;;;;;;4986757;28;20204;-57
2021/06/05 13:55:23;;;;;;;12.73;11.93;;;;;;;;;;4989992;28;20607;-59
2021/06/05 13:57:48;;;;;;;11.77;10.97;;;;;;;;;;4989158;28;21002;-59
2021/06/05 14:00:13;;;;;;;11.30;10.50;;;;;;;;;;4984669;28;20693;-59
2021/06/05 14:02:39;;;;;;;11.47;10.73;;;;;;;;;;4988605;28;20208;-59
2021/06/05 14:05:05;;;;;;;9.83;9.03;;;;;;;;;;4987660;28;20180;-58
2021/06/05 14:07:30;;;;;;;11.50;10.53;;;;;;;;;;4986260;28;20195;-59
2021/06/05 14:09:55;;;;;;;10.93;10.02;;;;;;;;;;4991540;28;20184;-60
2021/06/05 14:12:23;;;;;;;16.13;10.57;;;;;;;;;;4987346;28;20614;-60
2021/06/05 14:14:48;;;;;;;10.60;9.80;;;;;;;;;;4988204;28;20486;-60
2021/06/05 14:17:14;;;;;;;11.35;10.55;;;;;;;;;;4985659;28;20995;-60
2021/06/05 14:19:39;;;;;;;10.97;10.27;;;;;;;;;;4988069;28;20684;-60